Time;durP1;ratioP1;P1;durP2;ratioP2;P2;SDS_P1;SDS_P2;PMS_P1;PMS_P2;Temp;Humidity;BMP_temperature;BMP_pressure;BME280_temperature;BME280_humidity;BME280_pressure;Samples;Min_cycle;Max_cycle;Signal;HPM_P1;HPM_P2
2021/08/02 00:01:40;;;;;;;18.62;13.68;;;;;;;15.08;77.67;99835.17;1706796;82;26387;-70
2021/08/02 00:04:11;;;;;;;17.98;12.37;;;;;;;15.08;77.62;99843.27;1711842;81;25772;-70
2021/08/02 00:06:51;;;;;;;23.27;12.60;;;;;;;15.07;77.68;99849.64;1700793;82;25803;-70
2021/08/02 00:09:32;;;;;;;19.05;11.88;;;;;;;15.06;77.71;99847.92;1698564;81;27433;-70
2021/08/02 00:12:02;;;;;;;19.82;12.50;;;;;;;15.05;77.76;99846.20;1706356;81;26708;-70
2021/08/02 00:14:30;;;;;;;15.60;12.20;;;;;;;15.05;77.72;99843.50;1693428;82;25915;-70
2021/08/02 00:16:58;;;;;;;19.90;12.65;;;;;;;15.03;77.75;99849.98;1711353;81;25858;-70
2021/08/02 00:19:25;;;;;;;15.38;12.20;;;;;;;15.01;77.76;99846.05;1707127;82;26586;-70
2021/08/02 00:21:55;;;;;;;16.20;12.33;;;;;;;14.96;77.79;99842.84;1707296;81;28018;-70
2021/08/02 00:24:25;;;;;;;16.70;12.75;;;;;;;14.83;77.78;99822.64;1712942;81;25746;-70
2021/08/02 00:26:59;;;;;;;23.50;12.82;;;;;;;14.92;77.84;99846.25;1708333;81;25811;-70
2021/08/02 00:29:24;;;;;;;22.10;11.55;;;;;;;14.92;77.89;99847.59;1690601;83;26388;-70
2021/08/02 00:31:52;;;;;;;18.95;12.55;;;;;;;14.90;77.85;99846.84;1709911;81;25702;-70
2021/08/02 00:34:40;;;;;;;17.52;12.40;;;;;;;14.87;77.93;99840.33;1716802;82;27539;-70
2021/08/02 00:37:11;;;;;;;21.30;12.80;;;;;;;14.84;77.97;99838.34;1681277;82;25793;-69
2021/08/02 00:39:57;;;;;;;19.30;13.40;;;;;;;14.81;78.09;99836.73;1693487;82;26506;-69
2021/08/02 00:42:51;;;;;;;17.70;12.15;;;;;;;14.80;78.14;99842.25;1709979;81;26545;-69
2021/08/02 00:45:21;;;;;;;22.77;13.18;;;;;;;14.79;78.22;99838.69;1682574;82;25730;-69
2021/08/02 00:47:55;;;;;;;20.97;11.83;;;;;;;14.77;78.27;99830.33;1701813;81;27397;-69
2021/08/02 00:50:26;;;;;;;16.52;11.93;;;;;;;14.77;78.30;99842.47;1710915;81;27168;-69
2021/08/02 00:53:01;;;;;;;16.70;11.10;;;;;;;14.75;78.42;99834.48;1717019;81;25798;-69
2021/08/02 00:55:35;;;;;;;21.73;12.98;;;;;;;14.75;78.50;99839.88;1702905;81;25739;-69
2021/08/02 00:58:05;;;;;;;23.60;13.60;;;;;;;14.75;78.57;99834.98;1724886;81;25764;-69
2021/08/02 01:00:32;;;;;;;22.60;13.20;;;;;;;14.76;78.58;99843.44;1720725;81;27557;-69
2021/08/02 01:03:04;;;;;;;18.85;12.50;;;;;;;14.75;78.70;99839.88;1720985;81;25848;-69
2021/08/02 01:05:33;;;;;;;18.45;12.47;;;;;;;14.75;78.67;99831.79;1717201;81;25784;-69
2021/08/02 01:08:04;;;;;;;17.70;11.48;;;;;;;14.75;78.71;99829.09;1728618;81;26343;-69
2021/08/02 01:10:36;;;;;;;18.40;12.87;;;;;;;14.74;78.78;99823.81;1715399;81;25789;-69
2021/08/02 01:13:06;;;;;;;17.30;12.10;;;;;;;14.74;78.76;99823.33;1717292;81;27420;-69
2021/08/02 01:15:33;;;;;;;17.10;11.35;;;;;;;14.74;78.76;99816.58;1724943;81;26218;-69
2021/08/02 01:18:02;;;;;;;18.35;11.20;;;;;;;14.74;78.78;99819.28;1714610;81;25822;-69
2021/08/02 01:20:35;;;;;;;18.95;12.13;;;;;;;14.73;78.75;99818.91;1730031;81;26419;-69
2021/08/02 01:23:04;;;;;;;18.52;11.60;;;;;;;14.72;78.72;99822.58;1684654;82;25719;-69
2021/08/02 01:25:44;;;;;;;22.67;11.40;;;;;;;14.72;78.76;99831.16;1716828;81;27394;-69
2021/08/02 01:28:22;;;;;;;19.07;11.30;;;;;;;14.71;78.75;99834.83;1707061;81;26180;-69
2021/08/02 01:30:54;;;;;;;17.82;11.65;;;;;;;14.68;78.84;99843.14;1700283;82;25819;-69
2021/08/02 01:33:29;;;;;;;17.25;11.85;;;;;;;14.66;78.89;99839.20;1707745;81;25879;-69
2021/08/02 01:36:02;;;;;;;15.65;11.15;;;;;;;14.67;78.88;99844.11;1728651;80;26469;-69
2021/08/02 01:38:31;;;;;;;19.02;11.78;;;;;;;14.65;78.88;99842.88;1736141;80;26904;-69
2021/08/02 01:40:59;;;;;;;24.77;12.23;;;;;;;14.64;78.85;99842.50;1741097;80;26231;-69
2021/08/02 01:43:25;;;;;;;18.67;11.55;;;;;;;14.63;78.88;99846.66;1735598;80;25761;-69
2021/08/02 01:46:18;;;;;;;19.02;11.73;;;;;;;14.62;78.84;99844.45;1737661;80;26436;-69
2021/08/02 01:49:15;;;;;;;20.92;11.68;;;;;;;14.60;78.87;99843.70;1738582;80;25702;-68
2021/08/02 01:51:49;;;;;;;16.23;11.88;;;;;;;14.56;78.85;99841.71;1731779;80;29536;-68
2021/08/02 01:54:30;;;;;;;15.23;10.50;;;;;;;14.55;78.93;99837.78;1724619;80;26448;-68
2021/08/02 01:57:11;;;;;;;19.25;11.25;;;;;;;14.55;78.94;99841.34;1687914;83;25757;-68
2021/08/02 02:00:00;;;;;;;17.23;11.00;;;;;;;14.53;79.04;99841.07;1680096;83;26592;-68
2021/08/02 02:02:30;;;;;;;15.20;10.75;;;;;;;14.50;79.14;99843.50;1688248;83;25725;-68
2021/08/02 02:05:04;;;;;;;20.00;10.18;;;;;;;14.50;79.23;99846.69;1738169;80;29590;-68
2021/08/02 02:07:35;;;;;;;16.80;10.28;;;;;;;14.51;79.31;99845.72;1734565;80;25873;-68
2021/08/02 02:10:04;;;;;;;15.30;10.35;;;;;;;14.50;79.43;99848.89;1733868;80;25704;-68
2021/08/02 02:12:30;;;;;;;23.15;10.60;;;;;;;14.50;79.51;99851.59;1735087;80;25679;-68
2021/08/02 02:14:59;;;;;;;12.95;10.30;;;;;;;14.51;79.59;99851.11;1742596;80;26428;-68
2021/08/02 02:17:28;;;;;;;14.90;10.58;;;;;;;14.51;79.54;99854.66;1729948;80;27480;-68
2021/08/02 02:19:57;;;;;;;15.75;10.80;;;;;;;14.51;79.52;99856.50;1682597;83;25832;-68
2021/08/02 02:22:24;;;;;;;22.50;10.75;;;;;;;14.51;79.59;99862.75;1740033;80;26414;-68
2021/08/02 02:24:53;;;;;;;19.85;10.75;;;;;;;14.50;79.64;99870.47;1735248;80;26389;-68
2021/08/02 02:27:21;;;;;;;18.05;10.93;;;;;;;14.51;79.71;99865.45;1723373;80;25675;-68
2021/08/02 02:29:48;;;;;;;13.90;10.50;;;;;;;14.51;79.83;99864.59;1732092;80;28758;-68
2021/08/02 02:32:17;;;;;;;17.25;9.98;;;;;;;14.51;79.90;99864.10;1729734;80;26397;-68
2021/08/02 02:34:48;;;;;;;13.60;10.10;;;;;;;14.53;80.02;99858.60;1726925;80;25722;-68
2021/08/02 02:37:18;;;;;;;14.98;9.70;;;;;;;14.55;79.94;99873.70;1738061;79;33849;-67
2021/08/02 02:39:47;;;;;;;16.02;10.03;;;;;;;14.55;79.99;99872.34;1750555;79;25671;-69
2021/08/02 02:42:13;;;;;;;13.28;10.58;;;;;;;14.56;80.08;99868.68;1758999;79;27388;-69
2021/08/02 02:44:40;;;;;;;9.83;8.35;;;;;;;14.58;80.08;99874.83;1754395;79;25828;-69
2021/08/02 02:47:07;;;;;;;11.68;10.03;;;;;;;14.59;80.13;99877.03;1748470;79;25838;-69
2021/08/02 02:49:36;;;;;;;14.80;10.00;;;;;;;14.58;80.23;99877.52;1754109;79;26363;-68
2021/08/02 02:52:06;;;;;;;20.85;9.88;;;;;;;14.58;80.22;99878.87;1767066;79;25725;-68
2021/08/02 02:54:33;;;;;;;13.53;9.13;;;;;;;14.59;80.17;99883.78;1765062;79;28151;-67
2021/08/02 02:57:03;;;;;;;11.73;9.15;;;;;;;14.60;80.23;99888.20;1750506;79;25873;-67
2021/08/02 02:59:30;;;;;;;12.55;9.38;;;;;;;14.59;80.21;99889.17;1754525;79;26120;-69
2021/08/02 03:01:59;;;;;;;12.85;9.03;;;;;;;14.59;80.19;99891.38;1711157;83;25850;-68
2021/08/02 03:04:36;;;;;;;14.55;8.68;;;;;;;14.59;80.27;99891.38;1763495;79;26164;-68
2021/08/02 03:07:08;;;;;;;13.58;9.25;;;;;;;14.59;80.42;99894.08;1762610;79;27364;-68
2021/08/02 03:09:41;;;;;;;12.68;8.30;;;;;;;14.60;80.46;99896.30;1749832;79;25687;-68
2021/08/02 03:12:09;;;;;;;15.50;9.15;;;;;;;14.60;80.48;99897.64;1745804;79;26189;-68
2021/08/02 03:14:36;;;;;;;13.70;9.23;;;;;;;14.61;80.52;99896.18;1765877;79;26184;-68
2021/08/02 03:17:08;;;;;;;14.23;8.33;;;;;;;14.63;80.63;99916.30;1763370;79;25765;-68
2021/08/02 03:19:36;;;;;;;12.68;8.68;;;;;;;14.63;80.55;99902.81;1755215;79;27472;-68
2021/08/02 03:22:20;;;;;;;13.38;9.35;;;;;;;14.64;80.62;99912.63;1756967;79;26065;-68
2021/08/02 03:24:50;;;;;;;14.65;9.40;;;;;;;14.64;80.71;99909.07;1761555;79;25750;-68
2021/08/02 03:27:29;;;;;;;11.78;8.45;;;;;;;14.63;80.71;99906.00;1757111;79;25832;-68
2021/08/02 03:30:03;;;;;;;10.85;8.75;;;;;;;14.62;80.79;99911.88;1769417;79;25713;-68
2021/08/02 03:32:34;;;;;;;13.08;8.80;;;;;;;14.61;80.87;99919.59;1760620;79;27435;-68
2021/08/02 03:35:04;;;;;;;10.57;7.83;;;;;;;14.61;80.94;99922.29;1767689;79;25825;-68
2021/08/02 03:37:32;;;;;;;12.73;8.08;;;;;;;14.60;81.01;99924.13;1734859;81;26496;-68
2021/08/02 03:40:02;;;;;;;13.08;8.08;;;;;;;14.59;81.07;99920.19;1712973;81;25796;-68
2021/08/02 03:42:31;;;;;;;11.22;8.25;;;;;;;14.60;80.97;99919.22;1726378;82;25877;-68
2021/08/02 03:45:00;;;;;;;10.15;7.58;;;;;;;14.60;81.01;99925.95;1724449;80;28152;-68
2021/08/02 03:47:27;;;;;;;10.70;8.53;;;;;;;14.60;81.05;99928.17;1736124;80;25835;-68
2021/08/02 03:49:55;;;;;;;12.95;8.13;;;;;;;14.59;80.95;99927.80;1739556;80;25681;-68
2021/08/02 03:52:23;;;;;;;14.50;7.97;;;;;;;14.60;80.91;99928.17;1734448;80;27869;-68
2021/08/02 03:54:49;;;;;;;10.78;7.65;;;;;;;14.62;80.96;99924.02;1735404;81;25858;-68
2021/08/02 03:57:18;;;;;;;11.85;8.08;;;;;;;14.62;80.88;99926.71;1721207;80;27969;-67
2021/08/02 03:59:48;;;;;;;11.25;8.00;;;;;;;14.64;81.02;99933.34;1725516;80;25796;-67
2021/08/02 04:02:18;;;;;;;11.15;7.25;;;;;;;14.64;80.96;99940.09;1745687;80;26253;-67
2021/08/02 04:04:44;;;;;;;11.70;7.62;;;;;;;14.64;80.88;99937.39;1729750;80;26506;-67
2021/08/02 04:07:09;;;;;;;9.35;7.60;;;;;;;14.61;80.93;99946.08;1745408;80;26099;-67
2021/08/02 04:09:37;;;;;;;12.63;7.60;;;;;;;14.59;80.98;99938.58;1731354;80;27451;-68
2021/08/02 04:12:08;;;;;;;11.95;8.13;;;;;;;14.60;81.04;99942.14;1727211;81;27176;-68
2021/08/02 04:14:34;;;;;;;10.45;7.30;;;;;;;14.58;81.05;99957.08;1724790;80;25890;-68
2021/08/02 04:16:59;;;;;;;11.18;7.40;;;;;;;14.58;80.97;99952.17;1721098;80;26699;-68
2021/08/02 04:19:27;;;;;;;10.25;7.10;;;;;;;14.58;81.05;99950.34;1730022;80;26431;-68
2021/08/02 04:21:59;;;;;;;10.55;7.45;;;;;;;14.56;80.93;99959.52;1731402;81;26553;-68
2021/08/02 04:24:27;;;;;;;10.78;7.37;;;;;;;14.54;80.87;99963.66;1737215;80;25720;-68
2021/08/02 04:26:54;;;;;;;10.63;7.22;;;;;;;14.54;80.82;99970.89;1669060;83;26431;-68
2021/08/02 04:29:21;;;;;;;11.22;7.25;;;;;;;14.52;80.79;99971.00;1743259;80;25858;-68
2021/08/02 04:31:48;;;;;;;11.43;7.50;;;;;;;14.50;80.76;99974.77;1734259;80;25901;-68
2021/08/02 04:34:14;;;;;;;13.15;7.42;;;;;;;14.49;80.85;99990.58;1730578;80;28612;-68
2021/08/02 04:36:40;;;;;;;12.25;8.18;;;;;;;14.47;80.79;99979.03;1730548;80;26221;-68
2021/08/02 04:39:06;;;;;;;10.98;8.08;;;;;;;14.45;80.82;99977.80;1730486;80;25778;-68
2021/08/02 04:41:32;;;;;;;15.63;7.70;;;;;;;14.42;80.83;99982.05;1736590;80;27912;-68
2021/08/02 04:43:58;;;;;;;9.90;7.70;;;;;;;14.40;80.88;99979.91;1732146;80;25361;-68
2021/08/02 04:46:23;;;;;;;12.25;7.35;;;;;;;14.41;80.90;99987.03;1732165;81;27400;-68
2021/08/02 04:48:49;;;;;;;16.90;7.28;;;;;;;14.43;80.94;99989.66;1735694;80;26456;-68
2021/08/02 04:51:17;;;;;;;8.65;6.95;;;;;;;14.42;80.94;100007.67;1723102;80;26212;-68
2021/08/02 04:53:43;;;;;;;11.80;7.80;;;;;;;14.45;81.02;100004.76;1722841;80;25858;-68
2021/08/02 04:56:11;;;;;;;11.68;7.65;;;;;;;14.50;81.13;99999.05;1735617;80;25751;-68
2021/08/02 04:58:36;;;;;;;13.65;7.50;;;;;;;14.54;81.16;100005.47;1732090;81;27363;-68
2021/08/02 05:01:02;;;;;;;11.15;8.30;;;;;;;14.58;81.13;100011.51;1733899;80;25935;-68
2021/08/02 05:03:29;;;;;;;11.50;8.48;;;;;;;14.57;81.12;100007.95;1737814;80;25711;-68
2021/08/02 05:05:59;;;;;;;16.07;8.45;;;;;;;14.60;81.14;100006.87;1736198;80;26257;-68
2021/08/02 05:08:26;;;;;;;16.37;8.83;;;;;;;14.60;81.09;100014.48;1742729;81;25667;-68
2021/08/02 05:10:53;;;;;;;11.75;7.95;;;;;;;14.59;80.99;100010.05;1731132;80;27504;-68
2021/08/02 05:13:19;;;;;;;11.73;7.92;;;;;;;14.59;80.95;100014.09;1740518;80;26066;-68
2021/08/02 05:15:46;;;;;;;11.68;8.63;;;;;;;14.60;80.96;100022.56;1736449;80;25735;-68
2021/08/02 05:18:15;;;;;;;12.45;8.50;;;;;;;14.63;80.99;100031.41;1728799;80;25758;-69
2021/08/02 05:20:42;;;;;;;11.97;7.47;;;;;;;14.61;80.96;100021.59;1721324;80;25916;-69
2021/08/02 05:23:10;;;;;;;15.30;9.00;;;;;;;14.67;81.00;100025.70;1727561;80;27932;-69
2021/08/02 05:25:38;;;;;;;14.50;10.18;;;;;;;14.72;80.96;100029.42;1728443;80;25735;-69
2021/08/02 05:28:04;;;;;;;17.92;8.73;;;;;;;14.76;81.03;100030.94;1730445;80;25972;-70
2021/08/02 05:30:30;;;;;;;10.70;8.33;;;;;;;14.78;80.97;100022.25;1733792;80;25673;-69
2021/08/02 05:32:57;;;;;;;27.70;10.28;;;;;;;14.79;80.95;100019.92;1735142;80;25755;-69
2021/08/02 05:35:24;;;;;;;12.53;8.00;;;;;;;14.81;80.89;100040.43;1730220;80;29513;-70
2021/08/02 05:37:50;;;;;;;12.68;7.85;;;;;;;14.81;81.06;100040.91;1714114;80;25837;-69
2021/08/02 05:40:16;;;;;;;15.68;8.03;;;;;;;14.76;81.04;100037.68;1691425;80;25857;-69
2021/08/02 05:42:43;;;;;;;15.23;9.08;;;;;;;14.82;81.06;100039.95;1763720;79;25766;-69
2021/08/02 05:45:13;;;;;;;14.28;9.28;;;;;;;14.89;81.02;100039.41;1766522;79;26101;-69
2021/08/02 05:47:41;;;;;;;10.40;8.10;;;;;;;14.96;80.87;100037.13;1769651;79;27549;-68
2021/08/02 05:50:08;;;;;;;12.25;8.90;;;;;;;15.00;80.79;100040.48;1765216;79;27278;-69
2021/08/02 05:52:35;;;;;;;15.58;9.83;;;;;;;15.04;80.82;100050.95;1761344;79;25758;-69
2021/08/02 05:55:00;;;;;;;16.35;9.08;;;;;;;15.05;80.73;100047.28;1756005;79;27749;-69
2021/08/02 05:57:26;;;;;;;9.90;7.78;;;;;;;15.09;80.78;100056.88;1755907;79;25886;-69
2021/08/02 05:59:52;;;;;;;13.35;8.85;;;;;;;15.13;80.76;100044.89;1771358;79;27394;-69
2021/08/02 06:02:18;;;;;;;12.55;7.67;;;;;;;15.19;80.76;100044.94;1760618;79;25773;-69
2021/08/02 06:04:44;;;;;;;9.48;8.05;;;;;;;15.30;80.74;100052.27;1760163;79;25772;-69
2021/08/02 06:07:10;;;;;;;9.23;7.33;;;;;;;15.35;80.55;100057.70;1774777;79;25949;-69
2021/08/02 06:09:36;;;;;;;10.72;7.37;;;;;;;15.39;80.46;100051.11;1763233;79;25772;-69
2021/08/02 06:12:04;;;;;;;11.35;7.00;;;;;;;15.41;80.31;100047.81;1769807;79;26570;-69
2021/08/02 06:14:30;;;;;;;9.88;6.65;;;;;;;15.43;80.19;100043.16;1680889;82;25704;-68
2021/08/02 06:16:58;;;;;;;7.62;6.20;;;;;;;15.49;80.17;100053.52;1683550;82;25823;-68
2021/08/02 06:19:24;;;;;;;12.18;7.08;;;;;;;15.56;79.96;100053.94;1708680;81;27936;-68
2021/08/02 06:21:53;;;;;;;10.40;6.67;;;;;;;15.54;79.67;100048.64;1709938;81;25711;-67
2021/08/02 06:24:20;;;;;;;12.20;7.90;;;;;;;15.56;79.65;100056.15;1708930;83;27463;-69
2021/08/02 06:26:46;;;;;;;12.40;7.58;;;;;;;15.62;79.51;100063.42;1710600;81;25801;-69
2021/08/02 06:29:14;;;;;;;9.75;6.25;;;;;;;15.68;79.39;100080.05;1706281;81;25720;-69
2021/08/02 06:31:40;;;;;;;9.40;5.95;;;;;;;15.76;79.21;100074.94;1708119;81;25745;-69
2021/08/02 06:34:06;;;;;;;15.55;6.60;;;;;;;15.79;79.02;100077.42;1702116;81;25757;-67
2021/08/02 06:36:32;;;;;;;9.23;5.92;;;;;;;15.81;78.96;100072.77;1701848;81;28054;-69
2021/08/02 06:38:58;;;;;;;8.40;6.53;;;;;;;15.90;78.92;100077.48;1719736;81;25831;-68
2021/08/02 06:41:23;;;;;;;22.82;5.70;;;;;;;15.95;78.56;100085.74;1707532;81;26098;-69
2021/08/02 06:43:51;;;;;;;8.75;5.33;;;;;;;15.93;78.37;100084.50;1717267;81;25773;-68
2021/08/02 06:46:17;;;;;;;8.15;5.35;;;;;;;16.00;78.32;100084.91;1704863;81;25719;-69
2021/08/02 06:48:45;;;;;;;14.30;6.95;;;;;;;16.08;78.04;100095.53;1706879;81;27421;-69
2021/08/02 06:51:13;;;;;;;11.25;5.08;;;;;;;16.13;77.92;100096.53;1703164;81;27207;-70
2021/08/02 06:53:41;;;;;;;8.90;5.50;;;;;;;16.19;77.72;100093.38;1714406;83;25759;-69
2021/08/02 06:56:08;;;;;;;10.23;6.20;;;;;;;16.24;77.59;100093.39;1699563;81;25925;-69
2021/08/02 06:58:34;;;;;;;11.40;4.92;;;;;;;16.34;77.47;100095.41;1696463;81;25816;-69
2021/08/02 07:01:01;;;;;;;8.08;5.53;;;;;;;16.32;77.22;100094.17;1759952;79;29606;-70
2021/08/02 07:03:28;;;;;;;10.45;5.20;;;;;;;16.33;77.12;100093.19;1745075;79;25764;-70
2021/08/02 07:05:54;;;;;;;9.55;4.80;;;;;;;16.40;77.09;100098.51;1734001;79;25731;-70
2021/08/02 07:08:20;;;;;;;15.32;4.87;;;;;;;16.48;76.95;100099.27;1753173;79;25850;-70
2021/08/02 07:10:46;;;;;;;11.78;5.33;;;;;;;16.59;76.89;100095.75;1755957;79;25722;-70
2021/08/02 07:13:14;;;;;;;11.30;4.05;;;;;;;16.72;76.77;100091.14;1757415;79;27887;-70
2021/08/02 07:15:39;;;;;;;8.38;4.12;;;;;;;16.88;76.67;100091.67;1760962;79;25762;-69
2021/08/02 07:18:09;;;;;;;5.87;4.47;;;;;;;17.05;76.49;100090.35;1757331;79;25917;-70
2021/08/02 07:20:36;;;;;;;10.90;3.58;;;;;;;17.19;76.33;100093.69;1739165;79;26424;-70
2021/08/02 07:23:06;;;;;;;5.17;2.98;;;;;;;17.25;75.69;100094.19;1758397;79;25849;-70
2021/08/02 07:25:32;;;;;;;3.70;2.65;;;;;;;17.30;75.47;100096.03;1742553;80;27468;-69
2021/08/02 07:27:58;;;;;;;4.20;2.40;;;;;;;17.42;75.27;100095.05;1742905;79;26428;-69
2021/08/02 07:30:24;;;;;;;8.20;2.22;;;;;;;17.61;74.82;100096.64;1756143;79;26466;-69
2021/08/02 07:32:50;;;;;;;5.62;2.42;;;;;;;17.69;74.43;100094.20;1754538;79;25871;-69
2021/08/02 07:35:17;;;;;;;4.80;2.17;;;;;;;17.78;74.00;100094.81;1746915;79;25735;-69
2021/08/02 07:37:44;;;;;;;6.10;2.00;;;;;;;17.77;73.35;100091.73;1732426;80;27528;-70
2021/08/02 07:40:11;;;;;;;5.55;2.60;;;;;;;17.69;72.86;100105.05;1768065;79;27202;-69
2021/08/02 07:42:39;;;;;;;3.77;2.40;;;;;;;17.68;72.62;100095.69;1764077;79;26071;-69
2021/08/02 07:45:06;;;;;;;4.47;2.42;;;;;;;17.65;72.25;100102.19;1756104;79;25748;-69
2021/08/02 07:47:34;;;;;;;6.03;2.20;;;;;;;17.63;71.98;100099.23;1751884;79;26086;-70
2021/08/02 07:50:01;;;;;;;3.08;2.27;;;;;;;17.57;71.83;100115.50;1742565;79;27452;-69
2021/08/02 07:52:27;;;;;;;4.80;1.90;;;;;;;17.52;71.22;100113.65;1754595;79;26541;-69
2021/08/02 07:54:54;;;;;;;8.30;1.95;;;;;;;17.44;70.84;100108.84;1746719;79;25698;-68
2021/08/02 07:57:20;;;;;;;7.85;2.37;;;;;;;17.34;69.89;100124.11;1760753;79;25768;-68
2021/08/02 07:59:46;;;;;;;8.00;2.25;;;;;;;17.25;69.70;100119.92;1762224;79;25896;-69
2021/08/02 08:02:14;;;;;;;8.20;2.27;;;;;;;17.22;69.33;100122.87;1752338;79;27472;-69
2021/08/02 08:04:40;;;;;;;4.25;2.47;;;;;;;17.22;69.53;100116.96;1752451;79;25738;-69
2021/08/02 08:07:05;;;;;;;6.97;2.30;;;;;;;17.34;69.62;100126.82;1757512;79;26615;-69
2021/08/02 08:09:34;;;;;;;2.75;2.35;;;;;;;17.44;68.89;100137.30;1762467;79;25870;-69
2021/08/02 08:12:02;;;;;;;4.20;2.33;;;;;;;17.50;68.99;100116.97;1746990;79;25719;-69
2021/08/02 08:14:28;;;;;;;5.90;2.60;;;;;;;17.59;68.88;100114.87;1767120;79;27530;-69
2021/08/02 08:16:54;;;;;;;5.03;2.10;;;;;;;17.74;69.06;100110.95;1765301;79;25983;-69
2021/08/02 08:19:20;;;;;;;8.68;2.42;;;;;;;17.87;68.71;100109.95;1743337;80;25699;-69
2021/08/02 08:21:49;;;;;;;2.80;2.08;;;;;;;17.94;68.52;100116.59;1730685;80;25795;-69
2021/08/02 08:24:16;;;;;;;7.10;2.00;;;;;;;18.00;67.93;100116.09;1748463;79;25788;-69
2021/08/02 08:26:42;;;;;;;6.60;2.10;;;;;;;18.00;67.63;100131.87;1747754;79;28066;-70
2021/08/02 08:29:09;;;;;;;3.05;2.10;;;;;;;17.91;67.28;100120.92;1765541;79;26023;-68
2021/08/02 08:31:37;;;;;;;4.62;1.85;;;;;;;17.84;66.70;100117.84;1759890;79;25837;-69
2021/08/02 08:34:04;;;;;;;7.20;2.08;;;;;;;17.87;66.86;100127.08;1758708;79;25737;-68
2021/08/02 08:36:31;;;;;;;6.25;2.15;;;;;;;17.86;66.29;100124.50;1762899;79;25702;-69
2021/08/02 08:38:56;;;;;;;9.00;2.05;;;;;;;17.91;66.01;100138.05;1754077;79;28099;-70
2021/08/02 08:41:26;;;;;;;2.55;1.85;;;;;;;17.86;65.74;100133.49;1744481;80;25780;-69
2021/08/02 08:43:57;;;;;;;5.10;2.15;;;;;;;17.88;65.80;100130.16;1740270;80;25816;-69
2021/08/02 08:46:25;;;;;;;3.80;1.92;;;;;;;18.03;65.98;100141.11;1731915;80;25711;-69
2021/08/02 08:48:53;;;;;;;7.37;1.90;;;;;;;18.08;65.18;100130.74;1745049;80;26366;-69
2021/08/02 08:51:20;;;;;;;3.77;1.42;;;;;;;18.13;64.92;100138.50;1727780;81;27446;-67
2021/08/02 08:53:46;;;;;;;5.62;1.85;;;;;;;18.16;64.97;100140.46;1738169;80;25808;-67
2021/08/02 08:56:17;;;;;;;4.08;1.62;;;;;;;18.20;64.26;100142.42;1740896;80;25676;-68
2021/08/02 08:58:45;;;;;;;10.10;1.85;;;;;;;18.21;63.99;100152.25;1727212;80;25778;-68
2021/08/02 09:01:12;;;;;;;4.42;2.05;;;;;;;18.29;64.21;100148.91;1734181;80;26365;-69
2021/08/02 09:03:51;;;;;;;5.00;2.02;;;;;;;18.34;62.88;100150.74;1741257;80;27621;-69
2021/08/02 09:06:18;;;;;;;7.22;2.08;;;;;;;18.27;62.85;100155.81;1716600;80;27012;-69
2021/08/02 09:09:05;;;;;;;5.17;1.98;;;;;;;18.21;63.05;100141.41;1727748;80;25755;-70
2021/08/02 09:11:31;;;;;;;12.78;3.02;;;;;;;18.28;63.11;100148.05;1682601;83;25805;-68
2021/08/02 09:14:02;;;;;;;6.08;1.77;;;;;;;18.38;63.53;100151.72;1745188;81;25958;-69
2021/08/02 09:16:28;;;;;;;;;;;;;;;18.42;63.25;100154.54;1725867;81;27592;-69
2021/08/02 09:19:08;;;;;;;3.00;1.52;;;;;;;18.34;62.48;100152.96;1725552;80;25778;-69
2021/08/02 09:21:46;;;;;;;6.87;1.72;;;;;;;18.24;62.68;100157.92;1728615;80;26214;-69
2021/08/02 09:24:16;;;;;;;8.70;1.85;;;;;;;18.25;62.94;100168.65;1744397;80;26341;-69
2021/08/02 09:26:41;;;;;;;5.12;1.70;;;;;;;18.29;62.46;100166.55;1734529;80;25802;-68
2021/08/02 09:29:11;;;;;;;4.80;1.75;;;;;;;18.27;62.19;100178.02;1711113;81;27483;-68
2021/08/02 09:31:44;;;;;;;8.78;1.47;;;;;;;18.28;62.40;100170.24;1697909;82;26429;-68
2021/08/02 09:34:10;;;;;;;6.22;1.80;;;;;;;18.37;62.35;100165.41;1687151;82;25819;-70
2021/08/02 09:36:43;;;;;;;6.78;1.72;;;;;;;18.45;62.26;100163.78;1695828;82;26567;-68
2021/08/02 09:39:14;;;;;;;7.78;1.55;;;;;;;18.51;62.39;100166.48;1695993;83;25758;-68
2021/08/02 09:41:41;;;;;;;6.22;1.98;;;;;;;18.57;62.47;100158.31;1694169;82;25806;-68
2021/08/02 09:44:22;;;;;;;8.33;1.80;;;;;;;18.71;62.18;100167.05;1691753;82;25848;-68
2021/08/02 09:47:09;;;;;;;5.15;1.67;;;;;;;18.89;61.99;100170.55;1701024;82;25776;-69
2021/08/02 09:49:41;;;;;;;3.33;1.72;;;;;;;19.09;61.75;100166.98;1674251;83;26399;-69
2021/08/02 09:52:09;;;;;;;6.80;1.72;;;;;;;19.22;61.72;100155.42;1679206;84;25995;-69
2021/08/02 09:54:36;;;;;;;5.25;1.82;;;;;;;19.27;61.17;100165.39;1710755;81;27350;-69
2021/08/02 09:57:05;;;;;;;6.67;2.45;;;;;;;19.18;61.33;100158.03;1712303;80;25712;-70
2021/08/02 09:59:34;;;;;;;5.67;2.10;;;;;;;19.23;61.37;100159.86;1679834;83;25787;-69
2021/08/02 10:02:01;;;;;;;8.68;2.45;;;;;;;19.24;60.75;100160.72;1680228;84;26398;-69
2021/08/02 10:04:30;;;;;;;6.85;1.60;;;;;;;19.14;60.85;100184.61;1728763;80;25843;-69
2021/08/02 10:07:00;;;;;;;3.35;1.95;;;;;;;19.07;61.00;100175.77;1740858;80;27491;-70
2021/08/02 10:09:30;;;;;;;5.80;2.00;;;;;;;19.13;60.99;100169.80;1726367;80;26370;-67
2021/08/02 10:12:01;;;;;;;6.08;1.60;;;;;;;19.16;60.88;100169.53;1742912;79;25717;-70
2021/08/02 10:14:33;;;;;;;3.02;1.87;;;;;;;19.14;61.03;100170.16;1753445;80;25841;-69
2021/08/02 10:17:05;;;;;;;3.17;2.02;;;;;;;19.20;60.79;100174.20;1729068;80;25289;-68
2021/08/02 10:19:42;;;;;;;5.10;2.10;;;;;;;19.07;60.63;100187.49;1753794;80;28003;-68
2021/08/02 10:22:09;;;;;;;6.20;2.15;;;;;;;19.06;60.64;100179.47;1750518;80;25766;-68
2021/08/02 10:24:50;;;;;;;9.53;2.42;;;;;;;19.06;60.31;100177.62;1758219;80;25846;-68
2021/08/02 10:27:30;;;;;;;2.90;2.05;;;;;;;19.07;60.27;100183.91;1752278;81;25899;-69
2021/08/02 10:29:56;;;;;;;4.28;1.67;;;;;;;19.05;59.54;100187.26;1756662;80;25756;-69
2021/08/02 10:32:29;;;;;;;4.25;2.12;;;;;;;19.08;58.96;100189.70;1775062;80;27433;-69
2021/08/02 10:34:59;;;;;;;6.85;2.00;;;;;;;19.04;59.13;100183.67;1761832;80;26058;-66
2021/08/02 10:37:37;;;;;;;2.35;1.52;;;;;;;19.10;58.30;100199.45;1762854;80;25980;-66
2021/08/02 10:40:11;;;;;;;5.28;1.60;;;;;;;19.11;57.62;100184.88;1761450;80;25745;-65
2021/08/02 10:42:50;;;;;;;2.05;1.42;;;;;;;19.25;57.72;100192.33;1758597;80;25654;-66
2021/08/02 10:45:30;;;;;;;7.92;1.50;;;;;;;19.44;57.51;100185.16;1764063;80;27473;-66
2021/08/02 10:47:56;;;;;;;5.85;1.62;;;;;;;19.60;56.38;100181.12;1765598;80;26543;-66
2021/08/02 10:50:30;;;;;;;5.80;1.50;;;;;;;19.68;56.63;100175.38;1758966;80;25770;-66
2021/08/02 10:52:58;;;;;;;3.27;1.40;;;;;;;19.80;56.17;100187.02;1760532;80;26351;-63
2021/08/02 10:55:29;;;;;;;7.83;1.80;;;;;;;19.85;54.40;100186.11;1778984;79;25725;-65
2021/08/02 10:57:59;;;;;;;;;;;;;;;19.93;55.03;100177.27;1762486;80;27455;-66
2021/08/02 11:00:26;;;;;;;2.58;1.22;;;;;;;20.14;55.26;100182.64;1754705;80;26212;-66
2021/08/02 11:02:55;;;;;;;9.93;1.20;;;;;;;20.24;53.78;100173.50;1766705;80;25920;-65
2021/08/02 11:05:23;;;;;;;1.47;0.90;;;;;;;20.24;53.78;100173.50;1750352;80;26441;-66
2021/08/02 11:07:52;;;;;;;2.80;1.22;;;;;;;20.19;53.46;100170.34;1753417;79;26767;-67
2021/08/02 11:10:19;;;;;;;6.37;1.72;;;;;;;20.21;53.20;100171.55;1699737;82;27525;-67
2021/08/02 11:12:48;;;;;;;2.52;0.90;;;;;;;19.99;51.85;100161.26;1670308;83;25789;-68
2021/08/02 11:15:16;;;;;;;2.20;1.07;;;;;;;19.99;51.85;100161.26;1711833;81;26065;-68
2021/08/02 11:17:53;;;;;;;8.38;1.32;;;;;;;20.10;51.76;100177.47;1718546;81;25893;-66
2021/08/02 11:20:20;;;;;;;3.55;1.05;;;;;;;20.16;51.44;100169.75;1718932;81;25683;-65
2021/08/02 11:22:54;;;;;;;5.50;1.10;;;;;;;20.41;51.55;100163.82;1699293;83;28629;-66
2021/08/02 11:25:37;;;;;;;5.40;1.12;;;;;;;20.51;51.73;100174.73;1722453;81;25839;-65
2021/08/02 11:28:04;;;;;;;7.87;1.92;;;;;;;20.46;51.44;100179.23;1720384;81;25744;-64
2021/08/02 11:30:32;;;;;;;10.63;1.25;;;;;;;20.46;51.93;100177.02;1714461;82;26066;-66
2021/08/02 11:32:58;;;;;;;9.20;1.00;;;;;;;20.58;51.76;100190.36;1688599;82;25817;-65